sensor_id;sensor_type;location;lat;lon;timestamp;pressure;altitude;pressure_sealevel;temperature;humidity
58622;BME280;44389;51.578;5.456;2023-07-20T00:02:03;101235.22;;;15.71;100.00
58622;BME280;44389;51.578;5.456;2023-07-20T00:04:30;101239.47;;;15.66;100.00
58622;BME280;44389;51.578;5.456;2023-07-20T00:06:56;101243.81;;;15.67;100.00
58622;BME280;44389;51.578;5.456;2023-07-20T00:09:21;101244.53;;;15.55;100.00
58622;BME280;44389;51.578;5.456;2023-07-20T00:11:50;101244.41;;;15.48;100.00
58622;BME280;44389;51.578;5.456;2023-07-20T00:14:16;101245.28;;;15.49;100.00
58622;BME280;44389;51.578;5.456;2023-07-20T00:16:41;101240.59;;;15.25;100.00
58622;BME280;44389;51.578;5.456;2023-07-20T00:19:06;101252.66;;;15.23;100.00
58622;BME280;44389;51.578;5.456;2023-07-20T00:21:34;101242.91;;;15.09;100.00
58622;BME280;44389;51.578;5.456;2023-07-20T00:23:59;101244.34;;;14.93;100.00
58622;BME280;44389;51.578;5.456;2023-07-20T00:26:24;101244.50;;;15.03;100.00
58622;BME280;44389;51.578;5.456;2023-07-20T00:28:50;101246.63;;;14.76;100.00
58622;BME280;44389;51.578;5.456;2023-07-20T00:31:16;101244.63;;;14.63;100.00
58622;BME280;44389;51.578;5.456;2023-07-20T00:33:42;101256.56;;;14.55;100.00
58622;BME280;44389;51.578;5.456;2023-07-20T00:36:07;101256.78;;;14.64;100.00
58622;BME280;44389;51.578;5.456;2023-07-20T00:38:32;101241.31;;;14.69;100.00
58622;BME280;44389;51.578;5.456;2023-07-20T00:40:58;101247.59;;;14.80;100.00
58622;BME280;44389;51.578;5.456;2023-07-20T00:43:23;101242.38;;;14.78;100.00
58622;BME280;44389;51.578;5.456;2023-07-20T00:45:49;101251.00;;;14.79;100.00
58622;BME280;44389;51.578;5.456;2023-07-20T00:48:14;101254.44;;;14.78;100.00
58622;BME280;44389;51.578;5.456;2023-07-20T00:50:40;101249.47;;;14.89;100.00
58622;BME280;44389;51.578;5.456;2023-07-20T00:53:06;101251.19;;;14.90;100.00
58622;BME280;44389;51.578;5.456;2023-07-20T00:55:32;101261.78;;;14.99;100.00
58622;BME280;44389;51.578;5.456;2023-07-20T00:57:58;101253.16;;;15.02;100.00
58622;BME280;44389;51.578;5.456;2023-07-20T01:00:24;101250.59;;;15.03;100.00
58622;BME280;44389;51.578;5.456;2023-07-20T01:02:50;101256.63;;;15.02;100.00
58622;BME280;44389;51.578;5.456;2023-07-20T01:05:16;101247.03;;;14.98;100.00
58622;BME280;44389;51.578;5.456;2023-07-20T01:07:55;101250.50;;;14.98;100.00
58622;BME280;44389;51.578;5.456;2023-07-20T01:10:39;101252.13;;;14.93;100.00
58622;BME280;44389;51.578;5.456;2023-07-20T01:13:07;101249.34;;;14.81;100.00
58622;BME280;44389;51.578;5.456;2023-07-20T01:15:35;101261.16;;;14.67;100.00
58622;BME280;44389;51.578;5.456;2023-07-20T01:18:00;101261.16;;;14.67;100.00
58622;BME280;44389;51.578;5.456;2023-07-20T01:20:31;101256.78;;;14.64;100.00
58622;BME280;44389;51.578;5.456;2023-07-20T01:31:25;101261.03;;;14.62;100.00
58622;BME280;44389;51.578;5.456;2023-07-20T01:33:54;101268.69;;;14.56;100.00
58622;BME280;44389;51.578;5.456;2023-07-20T01:36:22;101268.81;;;14.62;100.00
58622;BME280;44389;51.578;5.456;2023-07-20T01:38:49;101267.16;;;14.64;100.00
58622;BME280;44389;51.578;5.456;2023-07-20T01:41:15;101263.72;;;14.65;100.00
58622;BME280;44389;51.578;5.456;2023-07-20T01:43:40;101263.78;;;14.68;100.00
58622;BME280;44389;51.578;5.456;2023-07-20T01:46:06;101263.75;;;14.67;100.00
58622;BME280;44389;51.578;5.456;2023-07-20T01:48:31;101266.41;;;14.70;100.00
58622;BME280;44389;51.578;5.456;2023-07-20T01:50:57;101270.53;;;14.61;100.00
58622;BME280;44389;51.578;5.456;2023-07-20T01:53:22;101269.41;;;14.48;100.00
58622;BME280;44389;51.578;5.456;2023-07-20T01:55:47;101260.59;;;14.40;100.00
58622;BME280;44389;51.578;5.456;2023-07-20T01:58:13;101269.88;;;14.29;100.00
58622;BME280;44389;51.578;5.456;2023-07-20T02:00:38;101271.56;;;14.27;100.00
58622;BME280;44389;51.578;5.456;2023-07-20T02:03:04;101273.94;;;14.18;100.00
58622;BME280;44389;51.578;5.456;2023-07-20T02:05:29;101274.88;;;14.20;100.00
58622;BME280;44389;51.578;5.456;2023-07-20T02:07:55;101275.00;;;14.26;100.00
58622;BME280;44389;51.578;5.456;2023-07-20T02:10:20;101276.72;;;14.25;100.00
58622;BME280;44389;51.578;5.456;2023-07-20T02:12:45;101274.91;;;14.23;100.00
58622;BME280;44389;51.578;5.456;2023-07-20T02:15:11;101270.50;;;14.17;100.00
58622;BME280;44389;51.578;5.456;2023-07-20T02:17:38;101279.91;;;14.13;100.00
58622;BME280;44389;51.578;5.456;2023-07-20T02:20:07;101286.63;;;14.04;100.00
58622;BME280;44389;51.578;5.456;2023-07-20T02:22:33;101284.06;;;14.05;100.00
58622;BME280;44389;51.578;5.456;2023-07-20T02:24:59;101280.72;;;14.11;100.00
58622;BME280;44389;51.578;5.456;2023-07-20T02:27:24;101279.09;;;14.16;100.00
58622;BME280;44389;51.578;5.456;2023-07-20T02:29:49;101290.41;;;14.18;100.00
58622;BME280;44389;51.578;5.456;2023-07-20T02:32:15;101281.03;;;14.25;100.00
58622;BME280;44389;51.578;5.456;2023-07-20T02:34:40;101280.25;;;14.29;100.00
58622;BME280;44389;51.578;5.456;2023-07-20T02:37:06;101291.50;;;14.29;100.00
58622;BME280;44389;51.578;5.456;2023-07-20T02:39:31;101288.03;;;14.29;100.00
58622;BME280;44389;51.578;5.456;2023-07-20T02:41:56;101289.91;;;14.36;100.00
58622;BME280;44389;51.578;5.456;2023-07-20T02:44:22;101291.59;;;14.34;100.00
58622;BME280;44389;51.578;5.456;2023-07-20T02:46:48;101302.94;;;14.39;100.00
58622;BME280;44389;51.578;5.456;2023-07-20T02:49:15;101298.66;;;14.41;100.00
58622;BME280;44389;51.578;5.456;2023-07-20T02:51:40;101299.50;;;14.40;100.00
58622;BME280;44389;51.578;5.456;2023-07-20T02:54:06;101306.41;;;14.40;100.00
58622;BME280;44389;51.578;5.456;2023-07-20T02:56:31;101301.06;;;14.32;100.00
58622;BME280;44389;51.578;5.456;2023-07-20T02:58:57;101309.53;;;14.25;100.00
58622;BME280;44389;51.578;5.456;2023-07-20T03:01:22;101319.78;;;14.19;100.00
58622;BME280;44389;51.578;5.456;2023-07-20T03:03:48;101327.38;;;14.11;100.00
58622;BME280;44389;51.578;5.456;2023-07-20T03:06:16;101323.75;;;14.03;100.00
58622;BME280;44389;51.578;5.456;2023-07-20T03:08:42;101324.53;;;13.98;100.00
58622;BME280;44389;51.578;5.456;2023-07-20T03:11:13;101324.38;;;13.92;100.00
58622;BME280;44389;51.578;5.456;2023-07-20T03:13:38;101322.53;;;13.87;100.00
58622;BME280;44389;51.578;5.456;2023-07-20T03:16:04;101326.59;;;13.77;100.00
58622;BME280;44389;51.578;5.456;2023-07-20T03:18:29;101336.75;;;13.68;100.00
58622;BME280;44389;51.578;5.456;2023-07-20T03:20:54;101337.53;;;13.65;100.00
58622;BME280;44389;51.578;5.456;2023-07-20T03:23:20;101333.34;;;13.70;100.00
58622;BME280;44389;51.578;5.456;2023-07-20T03:25:45;101345.50;;;13.73;100.00
58622;BME280;44389;51.578;5.456;2023-07-20T03:28:10;101345.50;;;13.73;100.00
58622;BME280;44389;51.578;5.456;2023-07-20T03:30:36;101345.56;;;13.76;100.00
58622;BME280;44389;51.578;5.456;2023-07-20T03:33:01;101346.50;;;13.78;100.00
58622;BME280;44389;51.578;5.456;2023-07-20T03:35:28;101341.41;;;13.82;100.00
58622;BME280;44389;51.578;5.456;2023-07-20T03:37:53;101347.38;;;13.80;100.00
58622;BME280;44389;51.578;5.456;2023-07-20T03:40:18;101347.34;;;13.78;100.00
58622;BME280;44389;51.578;5.456;2023-07-20T03:42:44;101345.59;;;13.77;100.00
58622;BME280;44389;51.578;5.456;2023-07-20T03:45:09;101343.78;;;13.73;100.00
58622;BME280;44389;51.578;5.456;2023-07-20T03:47:35;101347.75;;;13.59;100.00
58622;BME280;44389;51.578;5.456;2023-07-20T03:50:00;101351.06;;;13.53;100.00
58622;BME280;44389;51.578;5.456;2023-07-20T03:52:25;101348.41;;;13.52;100.00
58622;BME280;44389;51.578;5.456;2023-07-20T03:54:51;101347.50;;;13.49;100.00
58622;BME280;44389;51.578;5.456;2023-07-20T03:57:16;101347.34;;;13.43;100.00
58622;BME280;44389;51.578;5.456;2023-07-20T03:59:45;101358.25;;;13.33;100.00
58622;BME280;44389;51.578;5.456;2023-07-20T04:02:11;101355.69;;;13.33;100.00
58622;BME280;44389;51.578;5.456;2023-07-20T04:04:37;101365.88;;;13.27;100.00
58622;BME280;44389;51.578;5.456;2023-07-20T04:07:02;101358.78;;;13.20;100.00
58622;BME280;44389;51.578;5.456;2023-07-20T04:09:27;101354.09;;;13.06;100.00
58622;BME280;44389;51.578;5.456;2023-07-20T04:11:53;101358.50;;;13.10;100.00
58622;BME280;44389;51.578;5.456;2023-07-20T04:14:18;101360.28;;;13.11;100.00
58622;BME280;44389;51.578;5.456;2023-07-20T04:16:46;101364.34;;;13.01;100.00
58622;BME280;44389;51.578;5.456;2023-07-20T04:19:11;101361.63;;;12.98;100.00
58622;BME280;44389;51.578;5.456;2023-07-20T04:21:40;101361.69;;;13.00;100.00
58622;BME280;44389;51.578;5.456;2023-07-20T04:24:06;101366.78;;;12.97;100.00
58622;BME280;44389;51.578;5.456;2023-07-20T04:26:31;101364.97;;;12.94;100.00
58622;BME280;44389;51.578;5.456;2023-07-20T04:28:56;101365.38;;;13.08;100.00
58622;BME280;44389;51.578;5.456;2023-07-20T04:31:24;101363.97;;;13.20;100.00
58622;BME280;44389;51.578;5.456;2023-07-20T04:33:49;101362.22;;;13.18;100.00
58622;BME280;44389;51.578;5.456;2023-07-20T04:36:14;101361.41;;;13.21;100.00
58622;BME280;44389;51.578;5.456;2023-07-20T04:38:44;101363.38;;;13.30;100.00
58622;BME280;44389;51.578;5.456;2023-07-20T04:41:09;101353.75;;;13.26;100.00
58622;BME280;44389;51.578;5.456;2023-07-20T04:43:42;101359.78;;;13.25;100.00
58622;BME280;44389;51.578;5.456;2023-07-20T04:46:08;101365.06;;;13.29;100.00
58622;BME280;44389;51.578;5.456;2023-07-20T04:48:33;101360.00;;;13.32;100.00
58622;BME280;44389;51.578;5.456;2023-07-20T04:50:59;101365.97;;;13.30;100.00
58622;BME280;44389;51.578;5.456;2023-07-20T04:53:24;101363.31;;;13.28;100.00
58622;BME280;44389;51.578;5.456;2023-07-20T04:55:50;101366.81;;;13.30;100.00
58622;BME280;44389;51.578;5.456;2023-07-20T04:58:17;101367.09;;;13.40;100.00
58622;BME280;44389;51.578;5.456;2023-07-20T05:00:43;101358.34;;;13.36;100.00
58622;BME280;44389;51.578;5.456;2023-07-20T05:03:08;101363.72;;;13.42;100.00
58622;BME280;44389;51.578;5.456;2023-07-20T05:05:34;101361.22;;;13.45;100.00
58622;BME280;44389;51.578;5.456;2023-07-20T05:07:59;101359.63;;;13.50;100.00
58622;BME280;44389;51.578;5.456;2023-07-20T05:10:24;101360.66;;;13.57;100.00
58622;BME280;44389;51.578;5.456;2023-07-20T05:12:49;101359.03;;;13.61;100.00
58622;BME280;44389;51.578;5.456;2023-07-20T05:15:15;101357.28;;;13.60;100.00
58622;BME280;44389;51.578;5.456;2023-07-20T05:17:40;101359.09;;;13.64;100.00
58622;BME280;44389;51.578;5.456;2023-07-20T05:20:06;101363.44;;;13.65;100.00
58622;BME280;44389;51.578;5.456;2023-07-20T05:22:31;101355.63;;;13.63;100.00
58622;BME280;44389;51.578;5.456;2023-07-20T05:24:57;101349.59;;;13.64;100.00
58622;BME280;44389;51.578;5.456;2023-07-20T05:27:22;101358.25;;;13.65;100.00
58622;BME280;44389;51.578;5.456;2023-07-20T05:29:48;101358.31;;;13.68;100.00
58622;BME280;44389;51.578;5.456;2023-07-20T05:32:13;101366.94;;;13.67;100.00
58622;BME280;44389;51.578;5.456;2023-07-20T05:34:39;101376.63;;;13.74;100.00
58622;BME280;44389;51.578;5.456;2023-07-20T05:37:05;101381.03;;;13.78;100.00
58622;BME280;44389;51.578;5.456;2023-07-20T05:39:32;101383.78;;;13.85;100.00
58622;BME280;44389;51.578;5.456;2023-07-20T05:41:58;101386.50;;;13.89;100.00
58622;BME280;44389;51.578;5.456;2023-07-20T05:44:23;101381.50;;;13.97;100.00
58622;BME280;44389;51.578;5.456;2023-07-20T05:46:48;101383.28;;;13.99;100.00
58622;BME280;44389;51.578;5.456;2023-07-20T05:49:14;101390.38;;;14.08;100.00
58622;BME280;44389;51.578;5.456;2023-07-20T05:51:39;101388.78;;;14.13;100.00
58622;BME280;44389;51.578;5.456;2023-07-20T05:54:04;101391.47;;;14.16;100.00
58622;BME280;44389;51.578;5.456;2023-07-20T05:56:31;101393.34;;;14.24;100.00
58622;BME280;44389;51.578;5.456;2023-07-20T05:58:56;101395.91;;;14.22;100.00
58622;BME280;44389;51.578;5.456;2023-07-20T06:01:21;101398.69;;;14.30;100.00
58622;BME280;44389;51.578;5.456;2023-07-20T06:03:47;101396.22;;;14.36;100.00
58622;BME280;44389;51.578;5.456;2023-07-20T06:06:12;101389.78;;;14.58;100.00
58622;BME280;44389;51.578;5.456;2023-07-20T06:08:38;101399.50;;;14.65;100.00
58622;BME280;44389;51.578;5.456;2023-07-20T06:11:03;101398.88;;;14.77;100.00
58622;BME280;44389;51.578;5.456;2023-07-20T06:13:29;101395.38;;;14.75;100.00
58622;BME280;44389;51.578;5.456;2023-07-20T06:15:54;101400.28;;;14.63;100.00
58622;BME280;44389;51.578;5.456;2023-07-20T06:18:22;101405.84;;;14.78;100.00
58622;BME280;44389;51.578;5.456;2023-07-20T06:20:51;101412.88;;;14.86;100.00
58622;BME280;44389;51.578;5.456;2023-07-20T06:23:19;101411.28;;;14.91;100.00
58622;BME280;44389;51.578;5.456;2023-07-20T06:25:44;101418.28;;;14.95;100.00
58622;BME280;44389;51.578;5.456;2023-07-20T06:28:09;101418.34;;;14.98;100.00
58622;BME280;44389;51.578;5.456;2023-07-20T06:30:35;101420.03;;;14.96;100.00
58622;BME280;44389;51.578;5.456;2023-07-20T06:33:00;101419.06;;;14.91;100.00
58622;BME280;44389;51.578;5.456;2023-07-20T06:35:26;101407.03;;;14.94;100.00
58622;BME280;44389;51.578;5.456;2023-07-20T06:37:51;101407.88;;;14.95;100.00
58622;BME280;44389;51.578;5.456;2023-07-20T06:40:17;101407.19;;;15.04;100.00
58622;BME280;44389;51.578;5.456;2023-07-20T06:42:43;101405.84;;;15.23;100.00
58622;BME280;44389;51.578;5.456;2023-07-20T06:45:08;101405.19;;;15.33;100.00
58622;BME280;44389;51.578;5.456;2023-07-20T06:47:34;101401.66;;;15.29;100.00
58622;BME280;44389;51.578;5.456;2023-07-20T06:49:59;101402.75;;;15.42;100.00
58622;BME280;44389;51.578;5.456;2023-07-20T06:52:24;101401.22;;;15.52;100.00
58622;BME280;44389;51.578;5.456;2023-07-20T06:54:50;101404.09;;;15.69;100.00
58622;BME280;44389;51.578;5.456;2023-07-20T06:57:15;101400.81;;;15.79;100.00
58622;BME280;44389;51.578;5.456;2023-07-20T06:59:41;101405.16;;;15.79;100.00
58622;BME280;44389;51.578;5.456;2023-07-20T07:02:06;101413.44;;;16.10;100.00
58622;BME280;44389;51.578;5.456;2023-07-20T07:04:31;101411.69;;;16.07;100.00
58622;BME280;44389;51.578;5.456;2023-07-20T07:06:57;101413.78;;;16.30;100.00
58622;BME280;44389;51.578;5.456;2023-07-20T07:09:22;101410.44;;;16.37;100.00
58622;BME280;44389;51.578;5.456;2023-07-20T07:11:47;101406.91;;;16.35;100.00
58622;BME280;44389;51.578;5.456;2023-07-20T07:14:13;101405.22;;;16.37;100.00
58622;BME280;44389;51.578;5.456;2023-07-20T07:16:38;101420.63;;;16.25;100.00
58622;BME280;44389;51.578;5.456;2023-07-20T07:19:04;101425.56;;;16.06;100.00
58622;BME280;44389;51.578;5.456;2023-07-20T07:21:30;101421.09;;;15.99;100.00
58622;BME280;44389;51.578;5.456;2023-07-20T07:23:56;101422.75;;;15.95;100.00
58622;BME280;44389;51.578;5.456;2023-07-20T07:26:23;101425.34;;;15.94;100.00
58622;BME280;44389;51.578;5.456;2023-07-20T07:28:49;101425.31;;;15.91;100.00
58622;BME280;44389;51.578;5.456;2023-07-20T07:31:14;101425.31;;;15.92;100.00
58622;BME280;44389;51.578;5.456;2023-07-20T07:33:40;101422.63;;;15.88;100.00
58622;BME280;44389;51.578;5.456;2023-07-20T07:36:05;101418.38;;;15.93;100.00
58622;BME280;44389;51.578;5.456;2023-07-20T07:38:31;101420.25;;;16.00;100.00
58622;BME280;44389;51.578;5.456;2023-07-20T07:40:58;101429.13;;;16.15;100.00
58622;BME280;44389;51.578;5.456;2023-07-20T07:43:23;101423.34;;;16.31;100.00
58622;BME280;44389;51.578;5.456;2023-07-20T07:45:49;101433.75;;;16.31;100.00
58622;BME280;44389;51.578;5.456;2023-07-20T07:48:14;101432.66;;;16.78;100.00
58622;BME280;44389;51.578;5.456;2023-07-20T07:50:39;101429.59;;;17.07;100.00
58622;BME280;44389;51.578;5.456;2023-07-20T07:53:08;101441.31;;;17.43;100.00
58622;BME280;44389;51.578;5.456;2023-07-20T07:55:35;101437.84;;;17.46;100.00
58622;BME280;44389;51.578;5.456;2023-07-20T07:58:00;101440.63;;;17.64;98.00
58622;BME280;44389;51.578;5.456;2023-07-20T08:00:26;101444.16;;;17.71;95.94
58622;BME280;44389;51.578;5.456;2023-07-20T08:02:51;101441.72;;;17.88;96.83
58622;BME280;44389;51.578;5.456;2023-07-20T08:05:16;101443.75;;;18.20;92.63
58622;BME280;44389;51.578;5.456;2023-07-20T08:07:42;101440.41;;;18.38;90.56
58622;BME280;44389;51.578;5.456;2023-07-20T08:10:08;101444.88;;;18.54;88.23
58622;BME280;44389;51.578;5.456;2023-07-20T08:12:34;101447.53;;;18.62;84.73
58622;BME280;44389;51.578;5.456;2023-07-20T08:14:59;101451.88;;;18.63;83.20
58622;BME280;44389;51.578;5.456;2023-07-20T08:17:25;101445.84;;;18.80;82.09
58622;BME280;44389;51.578;5.456;2023-07-20T08:19:50;101455.66;;;19.19;84.31
58622;BME280;44389;51.578;5.456;2023-07-20T08:22:15;101447.00;;;19.34;82.57
58622;BME280;44389;51.578;5.456;2023-07-20T08:24:42;101450.56;;;19.78;82.69
58622;BME280;44389;51.578;5.456;2023-07-20T08:27:07;101457.56;;;19.84;80.54
58622;BME280;44389;51.578;5.456;2023-07-20T08:29:34;101450.63;;;20.01;79.79
58622;BME280;44389;51.578;5.456;2023-07-20T08:31:59;101454.94;;;20.39;82.38
58622;BME280;44389;51.578;5.456;2023-07-20T08:34:25;101455.81;;;20.06;78.20
58622;BME280;44389;51.578;5.456;2023-07-20T08:36:50;101454.94;;;19.84;78.21
58622;BME280;44389;51.578;5.456;2023-07-20T08:39:15;101458.31;;;19.33;78.52
58622;BME280;44389;51.578;5.456;2023-07-20T08:41:42;101454.81;;;19.30;81.43
58622;BME280;44389;51.578;5.456;2023-07-20T08:44:08;101450.53;;;19.60;85.53
58622;BME280;44389;51.578;5.456;2023-07-20T08:46:35;101457.34;;;19.08;81.50
58622;BME280;44389;51.578;5.456;2023-07-20T08:49:01;101454.84;;;19.37;85.62
58622;BME280;44389;51.578;5.456;2023-07-20T08:51:29;101451.28;;;19.17;82.50
58622;BME280;44389;51.578;5.456;2023-07-20T08:53:55;101440.00;;;19.27;81.24
58622;BME280;44389;51.578;5.456;2023-07-20T08:56:20;101451.34;;;19.29;79.95
58622;BME280;44389;51.578;5.456;2023-07-20T08:58:49;101445.22;;;19.27;78.48
58622;BME280;44389;51.578;5.456;2023-07-20T09:01:14;101449.59;;;19.25;79.32
58622;BME280;44389;51.578;5.456;2023-07-20T09:03:41;101451.28;;;19.14;77.89
58622;BME280;44389;51.578;5.456;2023-07-20T09:06:08;101454.91;;;19.78;76.77
58622;BME280;44389;51.578;5.456;2023-07-20T09:08:33;101454.09;;;19.94;73.30
58622;BME280;44389;51.578;5.456;2023-07-20T09:11:02;101451.47;;;19.91;71.33
58622;BME280;44389;51.578;5.456;2023-07-20T09:13:28;101445.38;;;20.03;72.29
58622;BME280;44389;51.578;5.456;2023-07-20T09:15:54;101449.66;;;20.55;70.13
58622;BME280;44389;51.578;5.456;2023-07-20T09:18:27;101449.69;;;20.38;69.80
58622;BME280;44389;51.578;5.456;2023-07-20T09:20:53;101446.22;;;20.28;67.78
58622;BME280;44389;51.578;5.456;2023-07-20T09:23:19;101441.00;;;20.22;68.91
58622;BME280;44389;51.578;5.456;2023-07-20T09:25:44;101437.53;;;20.04;69.71
58622;BME280;44389;51.578;5.456;2023-07-20T09:28:11;101434.88;;;20.29;69.74
58622;BME280;44389;51.578;5.456;2023-07-20T09:30:37;101438.34;;;20.45;68.15
58622;BME280;44389;51.578;5.456;2023-07-20T09:33:02;101434.84;;;20.71;68.81
58622;BME280;44389;51.578;5.456;2023-07-20T09:35:28;101433.06;;;20.73;67.90
58622;BME280;44389;51.578;5.456;2023-07-20T09:37:58;101429.31;;;21.31;68.10
58622;BME280;44389;51.578;5.456;2023-07-20T09:40:24;101426.53;;;21.59;65.86
58622;BME280;44389;51.578;5.456;2023-07-20T09:42:51;101434.00;;;22.12;63.38
58622;BME280;44389;51.578;5.456;2023-07-20T09:45:17;101429.00;;;21.82;60.52
58622;BME280;44389;51.578;5.456;2023-07-20T09:47:42;101441.19;;;21.88;58.60
58622;BME280;44389;51.578;5.456;2023-07-20T09:50:08;101427.22;;;21.87;59.54
58622;BME280;44389;51.578;5.456;2023-07-20T09:52:41;101433.09;;;22.16;57.43
58622;BME280;44389;51.578;5.456;2023-07-20T09:55:07;101432.34;;;22.00;56.95
58622;BME280;44389;51.578;5.456;2023-07-20T09:57:34;101435.75;;;22.11;56.68
58622;BME280;44389;51.578;5.456;2023-07-20T10:00:05;101429.72;;;21.98;55.70
58622;BME280;44389;51.578;5.456;2023-07-20T10:02:40;101423.84;;;22.66;62.76
58622;BME280;44389;51.578;5.456;2023-07-20T10:05:07;101427.94;;;22.91;53.66
58622;BME280;44389;51.578;5.456;2023-07-20T10:07:36;101418.88;;;23.16;54.34
58622;BME280;44389;51.578;5.456;2023-07-20T10:10:06;101422.47;;;23.08;53.23
58622;BME280;44389;51.578;5.456;2023-07-20T10:12:32;101426.34;;;22.79;54.61
58622;BME280;44389;51.578;5.456;2023-07-20T10:15:11;101422.41;;;23.11;54.22
58622;BME280;44389;51.578;5.456;2023-07-20T10:17:42;101427.94;;;22.89;51.82
58622;BME280;44389;51.578;5.456;2023-07-20T10:20:16;101420.97;;;22.85;51.47
58622;BME280;44389;51.578;5.456;2023-07-20T10:22:45;101417.63;;;24.47;48.33
58622;BME280;44389;51.578;5.456;2023-07-20T10:25:12;101418.38;;;24.07;46.69
58622;BME280;44389;51.578;5.456;2023-07-20T10:27:39;101409.63;;;23.50;46.90
58622;BME280;44389;51.578;5.456;2023-07-20T10:30:05;101408.34;;;23.13;46.49
58622;BME280;44389;51.578;5.456;2023-07-20T10:32:31;101405.09;;;23.58;48.58
58622;BME280;44389;51.578;5.456;2023-07-20T10:34:56;101415.69;;;24.55;44.76
58622;BME280;44389;51.578;5.456;2023-07-20T10:37:47;101407.25;;;25.97;45.74
58622;BME280;44389;51.578;5.456;2023-07-20T10:42:50;101400.03;;;28.36;36.98
58622;BME280;44389;51.578;5.456;2023-07-20T10:45:17;101407.56;;;28.72;35.51
58622;BME280;44389;51.578;5.456;2023-07-20T10:47:46;101408.91;;;27.56;36.05
58622;BME280;44389;51.578;5.456;2023-07-20T10:50:12;101403.97;;;26.55;38.56
58622;BME280;44389;51.578;5.456;2023-07-20T10:52:39;101406.00;;;25.42;38.95
58622;BME280;44389;51.578;5.456;2023-07-20T10:55:14;101398.97;;;24.58;42.55
58622;BME280;44389;51.578;5.456;2023-07-20T10:57:39;101394.78;;;24.00;42.95
58622;BME280;44389;51.578;5.456;2023-07-20T11:00:12;101394.69;;;23.50;44.28
58622;BME280;44389;51.578;5.456;2023-07-20T11:02:43;101401.41;;;23.09;44.65
58622;BME280;44389;51.578;5.456;2023-07-20T11:05:34;101398.66;;;23.18;47.90
58622;BME280;44389;51.578;5.456;2023-07-20T11:08:03;101400.63;;;22.99;47.40
58622;BME280;44389;51.578;5.456;2023-07-20T11:10:29;101398.13;;;22.90;47.23
58622;BME280;44389;51.578;5.456;2023-07-20T11:13:21;101388.00;;;23.28;47.30
58622;BME280;44389;51.578;5.456;2023-07-20T11:18:13;101394.31;;;23.74;44.58
58622;BME280;44389;51.578;5.456;2023-07-20T11:20:40;101391.75;;;24.21;44.19
58622;BME280;44389;51.578;5.456;2023-07-20T11:23:05;101386.41;;;23.75;42.80
58622;BME280;44389;51.578;5.456;2023-07-20T11:25:40;101387.38;;;23.70;45.44
58622;BME280;44389;51.578;5.456;2023-07-20T11:28:09;101385.41;;;23.26;43.68
58622;BME280;44389;51.578;5.456;2023-07-20T11:30:36;101386.53;;;23.07;45.91
58622;BME280;44389;51.578;5.456;2023-07-20T11:33:02;101374.47;;;22.93;47.50
58622;BME280;44389;51.578;5.456;2023-07-20T11:35:27;101376.31;;;22.85;46.43
58622;BME280;44389;51.578;5.456;2023-07-20T11:37:52;101376.34;;;22.82;46.56
58622;BME280;44389;51.578;5.456;2023-07-20T11:40:18;101378.09;;;22.83;47.18
58622;BME280;44389;51.578;5.456;2023-07-20T11:42:43;101379.41;;;22.48;47.07
58622;BME280;44389;51.578;5.456;2023-07-20T11:45:09;101372.97;;;22.71;48.38
58622;BME280;44389;51.578;5.456;2023-07-20T11:47:40;101369.59;;;22.62;48.05
58622;BME280;44389;51.578;5.456;2023-07-20T11:50:07;101372.59;;;22.25;47.72
58622;BME280;44389;51.578;5.456;2023-07-20T11:52:33;101368.25;;;22.24;49.40
58622;BME280;44389;51.578;5.456;2023-07-20T11:54:59;101377.34;;;21.89;49.93
58622;BME280;44389;51.578;5.456;2023-07-20T11:57:24;101363.47;;;21.71;50.04
58622;BME280;44389;51.578;5.456;2023-07-20T11:59:57;101376.72;;;21.59;51.61
58622;BME280;44389;51.578;5.456;2023-07-20T12:02:27;101368.84;;;21.56;51.38
58622;BME280;44389;51.578;5.456;2023-07-20T12:04:54;101361.94;;;21.43;53.69
58622;BME280;44389;51.578;5.456;2023-07-20T12:07:19;101367.84;;;21.73;53.83
58622;BME280;44389;51.578;5.456;2023-07-20T12:09:45;101361.91;;;21.49;53.06
58622;BME280;44389;51.578;5.456;2023-07-20T12:12:28;101363.28;;;21.96;51.34
58622;BME280;44389;51.578;5.456;2023-07-20T12:14:53;101359.69;;;22.03;50.29
58622;BME280;44389;51.578;5.456;2023-07-20T12:17:18;101360.72;;;21.89;50.15
58622;BME280;44389;51.578;5.456;2023-07-20T12:19:44;101353.50;;;22.11;50.66
58622;BME280;44389;51.578;5.456;2023-07-20T12:22:09;101349.25;;;22.00;50.74
58622;BME280;44389;51.578;5.456;2023-07-20T12:24:36;101354.28;;;23.55;47.74
58622;BME280;44389;51.578;5.456;2023-07-20T12:27:01;101359.13;;;23.25;47.02
58622;BME280;44389;51.578;5.456;2023-07-20T12:29:27;101351.13;;;23.32;45.99
58622;BME280;44389;51.578;5.456;2023-07-20T12:31:52;101348.41;;;23.39;45.37
58622;BME280;44389;51.578;5.456;2023-07-20T12:34:17;101358.47;;;23.09;46.72
58622;BME280;44389;51.578;5.456;2023-07-20T12:36:43;101350.38;;;23.24;46.54
58622;BME280;44389;51.578;5.456;2023-07-20T12:39:08;101355.72;;;23.20;45.33
58622;BME280;44389;51.578;5.456;2023-07-20T12:41:33;101355.16;;;23.54;47.18
58622;BME280;44389;51.578;5.456;2023-07-20T12:43:59;101347.53;;;23.93;44.98
58622;BME280;44389;51.578;5.456;2023-07-20T12:46:25;101346.53;;;23.98;44.14
58622;BME280;44389;51.578;5.456;2023-07-20T12:48:50;101350.88;;;23.48;43.88
58622;BME280;44389;51.578;5.456;2023-07-20T12:51:16;101348.56;;;23.29;44.27
58622;BME280;44389;51.578;5.456;2023-07-20T12:53:41;101347.78;;;23.21;45.02